Terminal Aerodrome Forecast
Issued by NWS Jackson, MS

Home | Current Version | Previous Version | Text Only | Print | Product List | Glossary On
Versions: 1 2 3 4 5 6 7 8 9 10 11 12 13
000
FTUS44 KJAN 062334
TAFHBG
TAF
KHBG 062334Z 0700/0724 15004KT P6SM SCT050
     FM070600 14003KT 6SM BR SCT007
     FM071000 00000KT 1SM BR BKN003
     FM071400 14005KT P6SM SCT050=

USA.gov is the U.S. government's official web portal to all federal, state and local government web resources and services.